Time;durP1;ratioP1;P1;durP2;ratioP2;P2;SDS_P1;SDS_P2;PMS_P1;PMS_P2;Temp;Humidity;BMP_temperature;BMP_pressure;BME280_temperature;BME280_humidity;BME280_pressure;Samples;Min_cycle;Max_cycle;Signal;HPM_P1;HPM_P2
2022/05/15 00:01:31;;;;;;;5.53;2.02;;;;;;;13.41;48.84;100941.14;1937706;74;21053;-60
2022/05/15 00:04:01;;;;;;;2.92;1.20;;;;;;;13.36;49.21;100947.11;1937934;74;21033;-62
2022/05/15 00:06:30;;;;;;;0.75;0.62;;;;;;;13.33;49.31;100953.85;1943705;74;21000;-61
2022/05/15 00:08:59;;;;;;;3.15;1.40;;;;;;;13.30;49.49;100963.24;1943530;74;21008;-60
2022/05/15 00:11:28;;;;;;;3.17;1.30;;;;;;;13.24;49.42;100946.31;1872075;77;21049;-60
2022/05/15 00:14:02;;;;;;;2.33;1.15;;;;;;;13.19;49.72;100958.92;1902228;75;21602;-60
2022/05/15 00:16:32;;;;;;;3.45;1.25;;;;;;;13.16;49.84;100952.44;1824133;76;21122;-60
2022/05/15 00:19:00;;;;;;;1.98;1.10;;;;;;;13.10;50.19;100945.18;1859033;77;21576;-61
2022/05/15 00:21:29;;;;;;;1.22;0.85;;;;;;;13.08;50.40;100944.40;1843739;77;21043;-60
2022/05/15 00:23:59;;;;;;;2.35;1.00;;;;;;;13.06;50.60;100952.02;1884941;76;21067;-60
2022/05/15 00:26:28;;;;;;;3.58;2.15;;;;;;;13.03;50.46;100954.80;1884782;76;21521;-61
2022/05/15 00:28:56;;;;;;;2.00;1.25;;;;;;;12.97;50.52;100954.61;1884940;76;21090;-61
2022/05/15 00:31:26;;;;;;;1.00;0.90;;;;;;;12.93;50.96;100951.72;1884784;76;21161;-60
2022/05/15 00:33:55;;;;;;;2.55;1.07;;;;;;;12.89;51.36;100948.80;1884995;76;21505;-60
2022/05/15 00:36:23;;;;;;;4.15;1.22;;;;;;;12.89;52.02;100950.13;1884906;76;21153;-61
2022/05/15 00:38:53;;;;;;;1.45;0.90;;;;;;;12.88;52.04;100947.10;1884865;76;21137;-61
2022/05/15 00:41:22;;;;;;;2.37;1.40;;;;;;;12.87;52.15;100945.37;1884844;76;21145;-60
2022/05/15 00:43:54;;;;;;;3.70;1.15;;;;;;;12.85;52.14;100954.69;1884731;76;21066;-61
2022/05/15 00:46:32;;;;;;;8.48;1.42;;;;;;;12.82;52.33;100949.56;1884807;76;21152;-60
2022/05/15 00:49:03;;;;;;;4.67;0.78;;;;;;;12.78;52.50;100949.75;1883716;76;21149;-61
2022/05/15 00:51:44;;;;;;;1.67;1.20;;;;;;;12.74;52.79;100949.03;1884939;76;21028;-60
2022/05/15 00:54:21;;;;;;;4.58;1.05;;;;;;;12.71;53.26;100951.83;1884837;76;21043;-60
2022/05/15 00:56:59;;;;;;;1.42;0.93;;;;;;;12.67;53.68;100945.82;1885018;76;21067;-60
2022/05/15 00:59:30;;;;;;;1.60;0.80;;;;;;;12.63;53.94;100938.09;1872353;76;21521;-60
2022/05/15 01:01:59;;;;;;;3.58;1.27;;;;;;;12.60;54.08;100937.77;1884759;76;21023;-61
2022/05/15 01:04:28;;;;;;;8.20;1.10;;;;;;;12.60;54.28;100940.41;1884788;76;21054;-60
2022/05/15 01:06:57;;;;;;;5.22;1.55;;;;;;;12.58;54.17;100940.95;1884746;76;21549;-60
2022/05/15 01:09:26;;;;;;;5.85;1.32;;;;;;;12.57;54.27;100943.17;1884895;76;21518;-60
2022/05/15 01:11:56;;;;;;;5.60;1.37;;;;;;;12.54;54.44;100945.94;1884920;76;21023;-61
2022/05/15 01:14:26;;;;;;;4.17;1.22;;;;;;;12.52;54.76;100946.48;1884913;76;21571;-60
2022/05/15 01:16:55;;;;;;;1.98;0.93;;;;;;;12.51;54.74;100964.59;1875415;76;21607;-60
2022/05/15 01:19:32;;;;;;;4.60;1.25;;;;;;;12.48;54.43;100966.03;1872929;76;21051;-61
2022/05/15 01:22:04;;;;;;;1.62;1.40;;;;;;;12.43;55.43;100965.37;1856119;76;21084;-61
2022/05/15 01:24:33;;;;;;;5.67;1.90;;;;;;;12.39;56.06;100971.71;1883900;76;21038;-60
2022/05/15 01:27:06;;;;;;;3.22;1.40;;;;;;;12.39;56.74;100973.03;1883987;76;21035;-61
2022/05/15 01:29:38;;;;;;;3.80;1.15;;;;;;;12.40;57.80;100967.69;1883804;76;21042;-61
2022/05/15 01:32:08;;;;;;;3.58;1.72;;;;;;;12.41;58.10;100968.54;1883859;76;21512;-60
2022/05/15 01:34:38;;;;;;;2.90;1.12;;;;;;;12.39;58.03;100979.63;1884081;76;21163;-61
2022/05/15 01:37:08;;;;;;;3.10;1.40;;;;;;;12.34;58.37;100974.56;1883890;76;21505;-60
2022/05/15 01:39:37;;;;;;;2.12;1.35;;;;;;;12.30;59.20;100984.39;1883894;76;21108;-61
2022/05/15 01:42:07;;;;;;;7.47;1.85;;;;;;;12.28;59.34;100983.61;1883758;76;21096;-61
2022/05/15 01:44:36;;;;;;;6.40;1.90;;;;;;;12.28;59.95;100958.52;1883992;76;21055;-60
2022/05/15 01:47:05;;;;;;;1.67;1.17;;;;;;;12.33;61.46;100980.28;1883962;76;21031;-60
2022/05/15 01:49:34;;;;;;;4.78;1.62;;;;;;;12.38;61.24;100976.61;1883929;76;21071;-60
2022/05/15 01:52:05;;;;;;;3.52;1.27;;;;;;;12.39;61.49;100980.48;1883939;76;21524;-59
2022/05/15 01:54:34;;;;;;;3.62;1.80;;;;;;;12.43;62.30;100981.21;1883844;76;21117;-61
2022/05/15 01:57:03;;;;;;;3.02;1.45;;;;;;;12.43;62.17;100971.53;1883828;76;21505;-61
2022/05/15 01:59:32;;;;;;;4.87;1.37;;;;;;;12.43;62.19;100975.93;1883856;76;21039;-60
2022/05/15 02:02:01;;;;;;;1.98;1.25;;;;;;;12.42;61.68;100983.00;1883865;76;21023;-60
2022/05/15 02:04:30;;;;;;;2.72;1.12;;;;;;;12.41;61.98;100986.55;1883844;76;21148;-61
2022/05/15 02:06:59;;;;;;;3.17;1.40;;;;;;;12.43;62.37;100992.66;1883831;76;21086;-60
2022/05/15 02:09:28;;;;;;;4.75;1.72;;;;;;;12.44;63.10;100986.91;1883836;76;21113;-61
2022/05/15 02:11:57;;;;;;;2.42;1.57;;;;;;;12.45;62.92;100991.24;1884044;76;21066;-60
2022/05/15 02:14:26;;;;;;;4.47;1.90;;;;;;;12.45;63.22;100986.84;1883959;76;21426;-60
2022/05/15 02:16:56;;;;;;;1.77;1.22;;;;;;;12.45;63.38;100984.64;1878613;75;21510;-60
2022/05/15 02:19:25;;;;;;;3.27;1.65;;;;;;;12.46;63.37;100982.41;1873411;76;21082;-61
2022/05/15 02:21:54;;;;;;;6.03;1.80;;;;;;;12.51;63.04;100987.89;1838392;78;21538;-60
2022/05/15 02:24:23;;;;;;;2.22;1.10;;;;;;;12.57;63.01;100984.12;1873434;76;21159;-61
2022/05/15 02:26:52;;;;;;;1.65;1.30;;;;;;;12.65;62.89;100979.37;1838590;78;21521;-61
2022/05/15 02:29:22;;;;;;;3.70;1.45;;;;;;;12.75;62.64;100978.03;1873563;76;21469;-60
2022/05/15 02:31:50;;;;;;;4.05;1.12;;;;;;;12.86;62.49;100980.67;1838598;78;21114;-60
2022/05/15 02:34:21;;;;;;;3.08;0.90;;;;;;;12.93;61.91;100975.52;1873435;76;21140;-61
2022/05/15 02:36:50;;;;;;;1.98;1.05;;;;;;;13.01;61.43;100978.65;1838725;78;21067;-61
2022/05/15 02:39:19;;;;;;;2.80;1.12;;;;;;;13.08;60.87;100980.56;1873677;76;21129;-60
2022/05/15 02:41:47;;;;;;;4.37;1.35;;;;;;;13.14;60.29;100982.91;1838680;78;21036;-61
2022/05/15 02:44:16;;;;;;;2.92;1.10;;;;;;;13.24;60.03;100973.64;1873571;76;21152;-60
2022/05/15 02:46:45;;;;;;;4.50;0.95;;;;;;;13.39;59.82;100968.13;1838528;78;21055;-62
2022/05/15 02:52:00;;;;;;;3.47;1.15;;;;;;;13.80;59.08;100969.25;1838999;78;21023;-60
2022/05/15 02:54:28;;;;;;;2.87;0.75;;;;;;;14.17;58.47;100981.14;1873760;76;21572;-61
2022/05/15 02:56:57;;;;;;;5.87;1.25;;;;;;;14.34;57.86;100967.03;1838718;78;21043;-60
2022/05/15 02:59:26;;;;;;;2.50;1.17;;;;;;;14.58;57.31;100972.41;1873442;76;21113;-60
2022/05/15 03:01:54;;;;;;;2.35;1.15;;;;;;;14.73;56.84;100968.58;1838727;78;21035;-60
2022/05/15 03:04:23;;;;;;;2.83;1.00;;;;;;;14.80;56.68;100963.34;1873550;76;21038;-61
2022/05/15 03:06:52;;;;;;;4.22;1.47;;;;;;;14.94;56.38;100971.42;1838602;78;21035;-61
2022/05/15 03:09:21;;;;;;;3.12;1.30;;;;;;;15.01;56.14;100966.17;1874812;75;21126;-61
2022/05/15 03:11:50;;;;;;;1.50;0.88;;;;;;;14.98;56.17;100972.96;1871746;77;21503;-61
2022/05/15 03:14:18;;;;;;;1.82;1.05;;;;;;;14.94;56.05;100971.42;1938081;74;21054;-61
2022/05/15 03:16:47;;;;;;;2.92;1.20;;;;;;;14.97;56.18;100969.91;1938145;74;21006;-60
2022/05/15 03:19:16;;;;;;;1.67;1.10;;;;;;;14.99;56.26;100979.96;1939481;74;21054;-60
2022/05/15 03:21:45;;;;;;;4.17;1.32;;;;;;;15.06;56.30;100989.78;1939388;74;21034;-60
2022/05/15 03:24:14;;;;;;;4.28;1.40;;;;;;;15.22;56.47;101000.43;1939451;74;21105;-61
2022/05/15 03:26:46;;;;;;;3.90;1.42;;;;;;;15.46;56.70;101000.03;1939423;74;21047;-60
2022/05/15 03:29:18;;;;;;;2.02;0.95;;;;;;;15.66;56.89;101010.39;1939421;74;21140;-60
2022/05/15 03:31:47;;;;;;;3.15;1.12;;;;;;;15.82;56.86;101005.96;1939512;74;21037;-61
2022/05/15 03:34:17;;;;;;;2.60;1.07;;;;;;;15.77;56.29;101014.66;1939584;74;21096;-61
2022/05/15 03:36:48;;;;;;;1.65;0.98;;;;;;;15.69;55.81;101012.00;1939255;74;21497;-61
2022/05/15 03:39:19;;;;;;;2.87;1.30;;;;;;;15.74;55.69;101016.14;1939366;74;21042;-61
2022/05/15 03:41:49;;;;;;;1.60;1.07;;;;;;;15.89;55.85;101020.20;1939408;74;21034;-60
2022/05/15 03:44:18;;;;;;;1.45;1.15;;;;;;;15.94;55.70;101020.33;1939380;74;21038;-60
2022/05/15 03:46:47;;;;;;;2.92;0.98;;;;;;;15.91;55.18;101016.98;1939266;74;21120;-60
2022/05/15 03:49:16;;;;;;;1.57;1.00;;;;;;;15.85;54.57;101020.00;1939213;74;21505;-61
2022/05/15 03:51:45;;;;;;;3.12;1.25;;;;;;;15.81;54.29;101010.88;1939370;74;21100;-61
2022/05/15 03:54:15;;;;;;;1.50;1.22;;;;;;;15.86;54.09;101012.41;1895894;75;21104;-61
2022/05/15 03:56:50;;;;;;;3.83;1.25;;;;;;;15.99;53.86;101014.73;1900639;75;21045;-60
2022/05/15 03:59:26;;;;;;;1.45;1.10;;;;;;;16.11;53.64;101011.38;1900738;75;21113;-60
2022/05/15 04:01:55;;;;;;;3.72;1.52;;;;;;;16.29;53.55;101014.78;1895734;75;21061;-62
2022/05/15 04:04:26;;;;;;;2.35;1.30;;;;;;;16.58;53.15;101021.03;1900457;75;21089;-62
2022/05/15 04:06:55;;;;;;;2.70;1.60;;;;;;;16.77;52.94;101013.27;1900660;74;21099;-61
2022/05/15 04:09:25;;;;;;;3.42;1.90;;;;;;;16.98;52.46;101017.30;1900676;75;21492;-62
2022/05/15 04:11:54;;;;;;;2.72;1.60;;;;;;;17.10;52.12;101009.05;1901013;75;21420;-62
2022/05/15 04:14:23;;;;;;;1.60;1.00;;;;;;;17.25;51.73;101015.22;1900586;75;21561;-62
2022/05/15 04:16:52;;;;;;;1.45;1.00;;;;;;;17.46;51.62;101021.46;1900772;75;21021;-61
2022/05/15 04:19:20;;;;;;;2.65;0.90;;;;;;;17.61;51.42;101016.48;1900780;75;21162;-61
2022/05/15 04:21:49;;;;;;;1.82;1.37;;;;;;;17.80;51.09;100997.52;1900643;75;21041;-62
2022/05/15 04:24:19;;;;;;;4.60;1.10;;;;;;;17.83;50.69;101005.78;1900694;74;21017;-62
2022/05/15 04:26:48;;;;;;;2.02;1.10;;;;;;;18.03;50.15;101004.02;1900667;75;21042;-63
2022/05/15 04:29:18;;;;;;;2.87;1.27;;;;;;;18.23;49.50;101007.18;1900811;75;21029;-61
2022/05/15 04:31:46;;;;;;;1.30;1.10;;;;;;;18.26;48.71;100996.29;1900646;75;21551;-61
2022/05/15 04:34:15;;;;;;;1.37;0.75;;;;;;;18.32;47.75;101011.41;1900687;75;21065;-62
2022/05/15 04:36:44;;;;;;;1.27;0.90;;;;;;;18.25;47.71;101019.92;1900793;75;21045;-61
2022/05/15 04:39:12;;;;;;;2.70;1.10;;;;;;;18.43;47.06;101021.84;1900637;75;21043;-61
2022/05/15 04:41:41;;;;;;;1.75;0.95;;;;;;;18.76;47.16;101024.01;1900636;75;21100;-62
2022/05/15 04:44:10;;;;;;;2.05;0.95;;;;;;;19.06;45.37;101022.86;1900671;75;21131;-62
2022/05/15 04:46:39;;;;;;;1.17;0.70;;;;;;;19.18;44.53;101024.67;1900768;75;21503;-61
2022/05/15 04:49:08;;;;;;;1.77;1.05;;;;;;;19.40;43.45;101003.09;1900656;75;21111;-61
2022/05/15 04:51:36;;;;;;;2.10;0.80;;;;;;;19.58;43.06;101015.61;1900779;75;21526;-61
2022/05/15 04:54:05;;;;;;;1.87;0.88;;;;;;;19.75;42.38;101030.44;1893795;75;21139;-61
2022/05/15 04:56:34;;;;;;;2.25;1.20;;;;;;;20.07;42.20;101040.10;1888633;76;21065;-61
2022/05/15 04:59:02;;;;;;;1.98;1.20;;;;;;;20.18;41.16;101033.96;1888742;75;21456;-62
2022/05/15 05:01:31;;;;;;;1.65;0.80;;;;;;;19.80;41.36;101034.97;1888570;76;21155;-62
2022/05/15 05:04:00;;;;;;;1.22;0.98;;;;;;;19.51;41.47;101039.72;1888757;76;21609;-61
2022/05/15 05:06:29;;;;;;;6.92;1.35;;;;;;;19.36;41.88;101039.00;1888406;76;21127;-61
2022/05/15 05:08:58;;;;;;;6.72;1.15;;;;;;;19.26;42.02;101032.98;1888468;76;21452;-61
2022/05/15 05:11:27;;;;;;;1.55;1.02;;;;;;;19.26;42.28;101031.64;1888649;75;21053;-61
2022/05/15 05:13:56;;;;;;;1.32;0.90;;;;;;;19.36;42.03;101039.00;1888526;76;21018;-63
2022/05/15 05:16:24;;;;;;;2.60;1.20;;;;;;;19.46;42.21;101039.57;1888688;76;21491;-62
2022/05/15 05:18:53;;;;;;;3.92;1.50;;;;;;;19.79;42.21;101043.47;1888479;76;21042;-61
2022/05/15 05:21:22;;;;;;;1.72;1.07;;;;;;;19.95;41.88;101047.68;1888592;76;21049;-61
2022/05/15 05:23:50;;;;;;;6.22;1.47;;;;;;;20.28;41.75;101054.16;1888524;74;21163;-61
2022/05/15 05:26:19;;;;;;;1.07;0.98;;;;;;;20.48;41.29;101044.64;1888494;76;21018;-61
2022/05/15 05:28:48;;;;;;;1.02;0.80;;;;;;;20.73;40.86;101049.86;1888489;76;21053;-61
2022/05/15 05:31:17;;;;;;;2.42;1.20;;;;;;;20.75;40.54;101060.41;1888597;75;21099;-60
2022/05/15 05:33:46;;;;;;;1.30;0.98;;;;;;;20.63;40.18;101055.53;1888481;76;21041;-60
2022/05/15 05:36:15;;;;;;;1.17;0.82;;;;;;;20.81;40.25;101046.58;1888447;76;21123;-60
2022/05/15 05:38:45;;;;;;;3.33;1.10;;;;;;;20.93;39.84;101057.66;1888504;76;21135;-61
2022/05/15 05:41:14;;;;;;;5.25;1.12;;;;;;;21.00;39.85;101057.55;1888617;76;21037;-60
2022/05/15 05:43:43;;;;;;;1.22;0.90;;;;;;;20.90;39.60;101052.56;1888694;76;21131;-61
2022/05/15 05:46:15;;;;;;;2.10;0.90;;;;;;;20.91;39.61;101068.13;1888463;76;21045;-61
2022/05/15 05:48:46;;;;;;;3.00;1.45;;;;;;;20.89;39.95;101067.39;1888574;74;21491;-62
2022/05/15 05:51:15;;;;;;;3.30;1.60;;;;;;;20.76;39.80;101057.63;1888601;76;21030;-61
2022/05/15 05:53:44;;;;;;;1.35;0.93;;;;;;;20.75;39.93;101054.60;1888169;75;21042;-61
2022/05/15 05:56:13;;;;;;;1.67;1.15;;;;;;;21.24;40.28;101053.08;1888465;76;21049;-63
2022/05/15 05:58:42;;;;;;;2.33;1.40;;;;;;;21.66;39.29;101049.31;1888462;76;21183;-60
2022/05/15 06:01:10;;;;;;;1.32;1.00;;;;;;;21.91;38.09;101046.33;1888536;76;21310;-60
2022/05/15 06:06:27;;;;;;;4.00;1.45;;;;;;;22.72;37.67;101046.74;1888608;76;21069;-61
2022/05/15 06:08:56;;;;;;;1.70;1.20;;;;;;;23.21;36.83;101034.09;1888424;76;21119;-62
2022/05/15 06:11:24;;;;;;;3.10;1.85;;;;;;;22.88;36.23;101040.05;1888546;76;21111;-62
2022/05/15 06:13:53;;;;;;;2.42;1.77;;;;;;;22.75;36.28;101045.61;1888602;76;21029;-61
2022/05/15 06:16:22;;;;;;;2.37;1.15;;;;;;;22.49;36.07;101038.45;1888592;76;21119;-62
2022/05/15 06:18:50;;;;;;;1.30;1.20;;;;;;;22.36;36.27;101043.50;1888727;76;21116;-61
2022/05/15 06:21:19;;;;;;;3.05;1.20;;;;;;;22.57;36.37;101038.64;1888488;76;21050;-62
2022/05/15 06:23:47;;;;;;;2.05;1.30;;;;;;;22.84;35.98;101042.64;1888613;76;21104;-62
2022/05/15 06:26:16;;;;;;;2.02;1.40;;;;;;;23.33;35.44;101038.37;1888706;75;21037;-62
2022/05/15 06:28:45;;;;;;;3.92;1.20;;;;;;;23.55;35.10;101049.91;1888555;76;21081;-62
2022/05/15 06:31:13;;;;;;;2.05;0.90;;;;;;;23.36;34.39;101023.33;1888624;76;21040;-61
2022/05/15 06:33:42;;;;;;;2.40;1.10;;;;;;;22.92;35.12;101034.26;1888592;76;21017;-61
2022/05/15 06:36:12;;;;;;;2.37;1.17;;;;;;;22.71;35.80;101037.48;1888529;76;21851;-59
2022/05/15 06:38:42;;;;;;;1.02;0.82;;;;;;;22.65;35.23;101026.77;1888610;76;21190;-59
2022/05/15 06:41:12;;;;;;;2.50;1.00;;;;;;;22.61;35.16;101036.08;1888702;76;21100;-58
2022/05/15 06:43:40;;;;;;;1.42;1.00;;;;;;;22.85;34.75;101037.14;1888593;76;21120;-59
2022/05/15 06:46:09;;;;;;;4.30;1.42;;;;;;;23.18;33.98;101042.41;1888566;76;21073;-59
2022/05/15 06:48:44;;;;;;;1.42;1.00;;;;;;;23.32;33.50;101032.66;1888426;76;21088;-59
2022/05/15 06:51:08;;;;;;;4.60;1.10;;;;;;;23.69;33.18;101041.46;1887263;75;21143;-59
2022/05/15 06:53:37;;;;;;;5.12;1.30;;;;;;;23.66;33.08;101033.19;1888733;74;21046;-59
2022/05/15 06:58:52;;;;;;;2.58;1.17;;;;;;;24.24;32.64;101044.53;1904406;74;21073;-61
2022/05/15 07:01:21;;;;;;;1.75;1.00;;;;;;;24.51;32.53;101038.91;1904608;75;21112;-61
2022/05/15 07:03:50;;;;;;;2.65;1.07;;;;;;;24.73;31.90;101042.31;1904586;74;21099;-60
2022/05/15 07:06:19;;;;;;;2.60;1.07;;;;;;;24.65;31.69;101049.27;1904494;75;21041;-60
2022/05/15 07:08:48;;;;;;;7.15;1.05;;;;;;;24.86;31.69;101048.23;1904490;75;21013;-60
2022/05/15 07:11:17;;;;;;;2.72;1.32;;;;;;;24.73;31.95;101049.05;1904443;74;21139;-61
2022/05/15 07:13:47;;;;;;;2.27;1.05;;;;;;;24.68;32.15;101063.44;1904417;75;21033;-60
2022/05/15 07:16:16;;;;;;;2.30;1.00;;;;;;;24.75;32.20;101064.56;1904453;75;21115;-60
2022/05/15 07:18:45;;;;;;;3.15;1.22;;;;;;;24.80;31.92;101066.33;1904460;75;21041;-60
2022/05/15 07:21:14;;;;;;;2.30;0.93;;;;;;;24.80;32.18;101062.29;1904493;75;21127;-61
2022/05/15 07:23:42;;;;;;;2.83;0.95;;;;;;;24.89;32.04;101059.23;1904429;75;21057;-60
2022/05/15 07:26:11;;;;;;;3.58;1.30;;;;;;;25.10;31.90;101063.05;1904427;75;21138;-60
2022/05/15 07:28:40;;;;;;;1.57;1.30;;;;;;;25.33;32.08;101063.08;1904595;75;21053;-60
2022/05/15 07:31:08;;;;;;;3.30;1.40;;;;;;;25.52;32.00;101064.83;1904490;74;21044;-60
2022/05/15 07:33:37;;;;;;;3.92;1.50;;;;;;;25.54;31.99;101051.20;1904512;75;21114;-60
2022/05/15 07:36:06;;;;;;;3.00;1.00;;;;;;;25.04;32.18;101055.91;1904509;75;21072;-59
2022/05/15 07:38:35;;;;;;;1.75;1.40;;;;;;;25.16;32.51;101051.71;1904366;75;21017;-60
2022/05/15 07:41:04;;;;;;;2.33;1.00;;;;;;;25.72;32.39;101058.83;1904477;75;21005;-60
2022/05/15 07:43:33;;;;;;;1.30;1.00;;;;;;;26.19;31.41;101050.59;1904449;75;21538;-60
2022/05/15 07:46:01;;;;;;;1.98;1.12;;;;;;;26.27;31.20;101062.47;1904512;74;21158;-60
2022/05/15 07:48:30;;;;;;;4.83;1.42;;;;;;;26.04;31.37;101055.32;1904495;75;21049;-60
2022/05/15 07:50:59;;;;;;;3.55;1.20;;;;;;;26.16;31.83;101057.64;1904335;75;21036;-60
2022/05/15 07:53:28;;;;;;;2.80;1.10;;;;;;;26.42;31.58;101052.81;1904596;74;21029;-59
2022/05/15 07:56:03;;;;;;;3.70;1.00;;;;;;;26.62;31.28;101052.67;1904560;74;21081;-60
2022/05/15 07:58:28;;;;;;;2.98;1.30;;;;;;;26.77;31.21;101053.27;1868611;77;21096;-60
2022/05/15 08:00:57;;;;;;;2.62;1.25;;;;;;;26.77;31.11;101038.93;1838571;78;21143;-59
2022/05/15 08:03:25;;;;;;;3.92;1.27;;;;;;;26.74;31.14;101051.39;1886326;75;21135;-60
2022/05/15 08:11:31;;;;;;;1.50;1.10;;;;;;;26.85;30.82;101047.08;1862043;77;21164;-59
2022/05/15 08:14:01;;;;;;;2.52;1.00;;;;;;;26.91;30.86;101046.94;1838709;78;21070;-59
2022/05/15 08:16:31;;;;;;;3.00;1.30;;;;;;;26.71;30.87;101053.92;1862210;77;21104;-59
2022/05/15 08:24:33;;;;;;;2.55;1.40;;;;;;;26.37;31.55;101047.89;1838568;78;21096;-59
2022/05/15 08:27:01;;;;;;;2.05;1.20;;;;;;;26.61;31.41;101036.11;1862083;77;21025;-59
2022/05/15 08:29:30;;;;;;;2.50;1.10;;;;;;;26.96;31.12;101039.20;1862111;77;21041;-60
2022/05/15 08:32:00;;;;;;;1.42;1.00;;;;;;;27.06;29.82;101052.12;1862141;77;21054;-59
2022/05/15 08:34:29;;;;;;;3.10;1.62;;;;;;;26.97;30.30;101040.92;1862118;77;21030;-59
2022/05/15 08:36:58;;;;;;;4.03;1.47;;;;;;;27.18;30.55;101039.67;1838587;78;21123;-60
2022/05/15 08:39:26;;;;;;;1.45;1.10;;;;;;;26.95;31.15;101050.53;1862122;77;21053;-59
2022/05/15 08:42:13;;;;;;;3.17;1.02;;;;;;;26.85;30.43;101041.67;1862193;77;21030;-59
2022/05/15 08:44:44;;;;;;;2.47;1.40;;;;;;;26.74;30.30;101041.94;1862203;77;21093;-60
2022/05/15 08:47:31;;;;;;;1.32;1.10;;;;;;;26.84;30.24;101041.34;1862021;77;21069;-60
2022/05/15 08:50:06;;;;;;;3.20;1.00;;;;;;;26.74;30.17;101040.11;1862165;77;21119;-60
2022/05/15 08:52:54;;;;;;;1.72;1.10;;;;;;;26.77;30.62;101037.58;1838701;78;21085;-60
2022/05/15 08:55:47;;;;;;;2.75;1.20;;;;;;;27.01;30.69;101030.13;1862132;77;21154;-60
2022/05/15 08:58:20;;;;;;;3.27;2.08;;;;;;;27.19;30.06;101019.25;1861541;77;21124;-60
2022/05/15 09:00:52;;;;;;;3.00;1.25;;;;;;;27.05;30.45;101025.25;1838524;78;21081;-60
2022/05/15 09:03:29;;;;;;;1.60;1.20;;;;;;;27.06;30.54;101010.23;1862135;77;21026;-61
2022/05/15 09:06:03;;;;;;;3.72;1.37;;;;;;;27.24;30.57;101029.08;1807458;79;21525;-60
2022/05/15 09:08:46;;;;;;;2.00;1.40;;;;;;;27.27;31.06;101027.41;1808707;79;21062;-60
2022/05/15 09:11:18;;;;;;;2.17;1.17;;;;;;;27.31;30.48;101026.07;1795347;79;21100;-59
2022/05/15 09:13:52;;;;;;;1.98;1.25;;;;;;;27.40;30.51;101020.71;1790112;79;21071;-60
2022/05/15 09:16:24;;;;;;;2.47;1.10;;;;;;;27.49;30.19;101017.03;1788700;79;21161;-60
2022/05/15 09:18:53;;;;;;;2.67;1.45;;;;;;;27.56;30.17;101018.06;1789469;79;21181;-60
2022/05/15 09:21:22;;;;;;;2.35;1.10;;;;;;;27.29;29.81;101014.58;1789476;79;21088;-60
2022/05/15 09:23:55;;;;;;;2.27;1.12;;;;;;;27.18;30.28;101017.54;1789570;80;21071;-60
2022/05/15 09:26:32;;;;;;;4.60;1.20;;;;;;;27.24;30.12;101015.56;1789514;80;21084;-60
2022/05/15 09:29:04;;;;;;;1.95;1.15;;;;;;;27.32;30.05;101012.91;1790348;79;21040;-60
2022/05/15 09:31:42;;;;;;;1.80;0.98;;;;;;;27.49;30.13;101014.32;1789557;80;21040;-60
2022/05/15 09:34:26;;;;;;;4.85;1.55;;;;;;;27.45;29.92;101017.02;1789494;80;21064;-60
2022/05/15 09:39:51;;;;;;;5.03;1.37;;;;;;;27.22;30.80;101027.52;1789541;80;21091;-60
2022/05/15 09:45:17;;;;;;;;;;;;;;;26.40;31.53;101026.48;1792256;79;21048;-59
2022/05/15 09:48:00;;;;;;;2.50;1.10;;;;;;;25.55;32.36;101026.80;1789605;79;20131;-60
2022/05/15 09:50:51;;;;;;;3.15;1.27;;;;;;;24.98;33.45;101009.36;1819174;79;21105;-60
2022/05/15 09:53:44;;;;;;;3.02;1.50;;;;;;;24.66;34.23;101021.36;1841892;78;21529;-60
2022/05/15 09:56:25;;;;;;;2.47;1.17;;;;;;;25.42;34.33;101013.66;1841782;78;21540;-59
2022/05/15 09:58:57;;;;;;;2.37;1.30;;;;;;;25.86;33.66;101008.93;1841667;78;21066;-60
2022/05/15 10:01:28;;;;;;;2.62;1.32;;;;;;;25.79;33.48;101008.68;1819213;79;21070;-60
2022/05/15 10:03:59;;;;;;;2.60;1.62;;;;;;;25.80;33.70;101013.09;1841860;78;21075;-61
2022/05/15 10:06:31;;;;;;;1.92;1.35;;;;;;;25.78;33.75;101007.00;1841853;78;21031;-61
2022/05/15 10:09:14;;;;;;;2.30;1.37;;;;;;;25.49;34.03;101000.92;1819286;79;21121;-61
2022/05/15 10:11:48;;;;;;;3.87;1.57;;;;;;;25.32;34.39;101007.47;1841523;78;21090;-59
2022/05/15 10:14:31;;;;;;;4.45;1.70;;;;;;;25.10;35.22;101005.97;1841259;78;21435;-59
2022/05/15 10:17:02;;;;;;;3.55;1.65;;;;;;;25.14;35.13;101006.52;1826016;78;21501;-59
2022/05/15 10:19:37;;;;;;;1.98;1.30;;;;;;;25.21;35.12;101012.55;1841241;78;21073;-59
2022/05/15 10:22:23;;;;;;;4.05;1.82;;;;;;;25.09;35.50;101006.14;1841351;77;21233;-59
2022/05/15 10:24:53;;;;;;;3.40;1.47;;;;;;;24.84;35.87;101007.13;1841227;77;21059;-59
2022/05/15 10:27:27;;;;;;;1.55;1.40;;;;;;;25.09;36.00;101002.11;1841182;78;21070;-60
2022/05/15 10:30:18;;;;;;;2.17;1.55;;;;;;;25.32;35.95;101000.73;1827281;78;21062;-59
2022/05/15 10:32:49;;;;;;;3.98;1.82;;;;;;;25.23;35.70;100997.11;1826858;78;21083;-60
2022/05/15 10:35:21;;;;;;;3.05;1.70;;;;;;;25.11;35.65;100996.06;1841531;77;21058;-60
2022/05/15 10:38:07;;;;;;;3.25;1.70;;;;;;;25.17;35.98;101000.85;1826692;78;21563;-61
2022/05/15 10:40:48;;;;;;;1.50;1.35;;;;;;;25.30;36.45;100989.25;1840984;78;21559;-60
2022/05/15 10:43:31;;;;;;;2.72;1.37;;;;;;;25.42;36.14;100988.06;1841241;78;21571;-60
2022/05/15 10:46:03;;;;;;;3.55;1.50;;;;;;;25.84;35.81;100989.36;1841125;78;21461;-60
2022/05/15 10:48:43;;;;;;;3.30;1.40;;;;;;;26.23;35.71;100996.29;1827337;78;21128;-60
2022/05/15 10:51:20;;;;;;;4.45;1.35;;;;;;;26.47;35.33;100996.50;1841366;78;21532;-60
2022/05/15 10:57:29;;;;;;;1.25;1.15;;;;;;;25.84;35.00;101000.63;1841377;78;21035;-60
2022/05/15 11:00:09;;;;;;;2.12;1.30;;;;;;;25.38;35.08;100994.76;1841195;78;21165;-60
2022/05/15 11:03:00;;;;;;;2.15;1.10;;;;;;;25.09;35.11;100998.06;1827208;78;21524;-62
2022/05/15 11:05:31;;;;;;;8.98;1.47;;;;;;;25.34;34.92;100992.50;1841257;78;21075;-60
2022/05/15 11:08:06;;;;;;;2.45;1.10;;;;;;;25.52;34.65;100997.94;1827346;78;21034;-60
2022/05/15 11:10:54;;;;;;;2.37;1.30;;;;;;;25.59;34.57;100985.04;1841275;78;21124;-60
2022/05/15 11:13:36;;;;;;;7.95;1.60;;;;;;;25.36;34.64;100991.84;1827247;78;21188;-60
2022/05/15 11:16:13;;;;;;;4.90;1.60;;;;;;;25.13;34.83;100987.34;1819997;78;21059;-62
2022/05/15 11:19:08;;;;;;;7.30;1.45;;;;;;;24.88;34.84;100991.06;1839919;78;21047;-60
2022/05/15 11:22:11;;;;;;;3.40;1.42;;;;;;;24.70;34.95;100990.97;1841287;78;21169;-60
2022/05/15 11:24:45;;;;;;;4.12;1.77;;;;;;;24.55;35.10;100990.58;1841484;78;21046;-61
2022/05/15 11:27:24;;;;;;;1.75;1.50;;;;;;;24.31;35.25;100988.79;1841206;78;21501;-60
2022/05/15 11:29:56;;;;;;;3.83;1.87;;;;;;;24.17;35.45;100975.30;1841127;78;21054;-60
2022/05/15 11:32:48;;;;;;;2.10;1.25;;;;;;;24.10;35.47;100980.38;1841294;77;21545;-60
2022/05/15 11:35:23;;;;;;;2.05;1.42;;;;;;;24.26;35.31;100986.04;1841241;78;21051;-61
2022/05/15 11:38:03;;;;;;;4.12;1.37;;;;;;;24.36;34.89;100975.77;1841244;77;21124;-61
2022/05/15 11:40:40;;;;;;;4.03;1.50;;;;;;;24.46;34.99;100979.30;1841273;78;21152;-60
2022/05/15 11:43:30;;;;;;;2.75;1.40;;;;;;;24.66;34.71;100977.45;1841168;77;21058;-60
2022/05/15 11:46:02;;;;;;;1.60;1.10;;;;;;;24.93;34.44;100974.44;1841324;78;21075;-61
2022/05/15 11:48:46;;;;;;;1.62;1.25;;;;;;;25.11;33.98;100975.86;1841244;78;21055;-61
2022/05/15 11:51:17;;;;;;;3.92;1.47;;;;;;;25.29;33.76;100982.19;1826855;78;21140;-60
2022/05/15 11:53:55;;;;;;;1.37;1.15;;;;;;;25.23;32.95;100981.38;1841204;78;21137;-60
2022/05/15 11:56:35;;;;;;;2.75;1.12;;;;;;;25.10;33.24;100964.22;1827189;78;21066;-60
2022/05/15 11:59:19;;;;;;;2.80;0.98;;;;;;;25.08;33.26;100977.49;1841179;78;21627;-60
2022/05/15 12:01:50;;;;;;;2.35;1.37;;;;;;;25.07;33.01;100982.55;1841231;78;21055;-60
2022/05/15 12:04:36;;;;;;;1.25;1.00;;;;;;;25.04;32.66;100981.83;1827168;78;21058;-61
2022/05/15 12:07:10;;;;;;;2.98;1.20;;;;;;;25.02;32.66;100973.55;1841181;77;21055;-60
2022/05/15 12:09:44;;;;;;;1.90;1.20;;;;;;;25.00;32.81;100972.34;1841218;77;21023;-60
2022/05/15 12:12:28;;;;;;;;;;;;;;;24.95;32.90;100975.98;1844184;78;21062;-60
2022/05/15 12:15:13;;;;;;;1.47;1.17;;;;;;;24.87;32.94;100963.77;1841889;78;20127;-60
2022/05/15 12:18:00;;;;;;;1.60;1.22;;;;;;;24.82;33.05;100971.42;1840270;78;21062;-61